createdAt,value
2019-03-05T00:09:01.901Z,6.16
2019-03-05T00:19:01.942Z,4.77
2019-03-05T00:29:01.905Z,4.28
2019-03-05T00:39:02.010Z,4.29
2019-03-05T00:49:01.918Z,4.28
2019-03-05T00:59:02.009Z,4.30
2019-03-05T01:09:01.845Z,4.36
2019-03-05T01:19:01.825Z,4.41
2019-03-05T01:29:02.489Z,4.38
2019-03-05T01:39:01.800Z,4.44
2019-03-05T01:49:01.809Z,4.49
2019-03-05T01:59:01.833Z,4.68
2019-03-05T02:09:02.415Z,4.78
2019-03-05T02:19:01.816Z,4.91
2019-03-05T02:29:01.932Z,5.09
2019-03-05T02:39:01.789Z,5.23
2019-03-05T02:49:01.819Z,5.25
2019-03-05T02:59:01.858Z,5.33
2019-03-05T03:09:01.756Z,5.37
2019-03-05T03:19:01.742Z,5.37
2019-03-05T03:29:01.758Z,5.36
2019-03-05T03:39:01.767Z,5.28
2019-03-05T03:49:01.845Z,5.32
2019-03-05T03:59:03.030Z,5.29
2019-03-05T04:09:01.767Z,5.26
2019-03-05T04:19:01.762Z,5.30
2019-03-05T04:29:01.808Z,5.10
2019-03-05T04:39:02.780Z,4.72
2019-03-05T04:49:01.961Z,4.61
2019-03-05T04:59:01.735Z,4.61
2019-03-05T05:09:04.451Z,4.54
2019-03-05T05:19:01.727Z,4.57
2019-03-05T05:29:01.689Z,4.64
2019-03-05T05:39:01.689Z,4.40
2019-03-05T05:49:01.615Z,3.90
2019-03-05T05:59:02.440Z,3.87
2019-03-05T06:09:01.717Z,3.73
2019-03-05T06:19:01.720Z,3.55
2019-03-05T06:29:02.951Z,3.21
2019-03-05T06:39:01.702Z,3.17
2019-03-05T06:49:03.151Z,3.23
2019-03-05T06:59:01.717Z,3.33
2019-03-05T07:09:01.680Z,3.49
2019-03-05T07:19:05.479Z,3.65
2019-03-05T07:29:02.549Z,3.84
2019-03-05T07:39:01.654Z,4.07
2019-03-05T07:49:01.728Z,4.13
2019-03-05T07:59:01.742Z,4.25
2019-03-05T08:09:02.398Z,4.43
2019-03-05T08:19:01.767Z,4.42
2019-03-05T08:29:02.947Z,4.65
2019-03-05T08:39:02.642Z,4.89
2019-03-05T08:49:01.796Z,5.04
2019-03-05T08:59:02.672Z,5.04
2019-03-05T09:09:02.737Z,5.12
2019-03-05T09:19:01.685Z,5.22
2019-03-05T09:29:02.738Z,5.30
2019-03-05T09:39:04.555Z,5.44
2019-03-05T09:49:01.721Z,5.67
2019-03-05T09:59:02.399Z,5.74
2019-03-05T10:09:01.841Z,5.92
2019-03-05T10:19:02.422Z,5.93
2019-03-05T10:39:08.027Z,5.99
2019-03-05T10:49:07.255Z,6.12
2019-03-05T10:59:07.116Z,6.38
2019-03-05T11:09:07.163Z,6.55
2019-03-05T11:19:08.966Z,6.67
2019-03-05T11:29:07.121Z,6.34
2019-03-05T11:39:08.997Z,6.50
2019-03-05T11:49:07.135Z,6.93
2019-03-05T11:59:07.623Z,6.90
2019-03-05T12:09:07.256Z,7.29
2019-03-05T12:19:08.590Z,7.38
2019-03-05T12:29:07.101Z,9.07
2019-03-05T12:39:07.164Z,9.49
2019-03-05T12:49:07.179Z,9.36
2019-03-05T12:59:07.229Z,8.88
2019-03-05T13:09:07.238Z,9.68
2019-03-05T13:19:09.602Z,9.25
2019-03-05T13:29:08.211Z,9.69
2019-03-05T13:39:07.557Z,9.85
2019-03-05T13:49:08.282Z,10.04
2019-03-05T13:59:07.096Z,9.43
2019-03-05T14:09:08.993Z,9.51
2019-03-05T14:19:07.498Z,9.92
2019-03-05T14:29:07.508Z,9.85
2019-03-05T14:39:07.240Z,11.14
2019-03-05T14:49:07.116Z,10.73
2019-03-05T14:59:07.956Z,10.80
2019-03-05T15:09:15.389Z,9.95
2019-03-05T15:39:08.464Z,10.83
2019-03-05T15:49:08.334Z,11.04
2019-03-05T15:59:08.432Z,9.48
2019-03-05T16:09:09.448Z,8.90
2019-03-05T16:19:12.455Z,8.75
2019-03-05T16:29:08.428Z,8.65
2019-03-05T16:39:10.413Z,8.51
2019-03-05T16:49:08.495Z,8.39
2019-03-05T16:59:08.959Z,8.26
2019-03-05T17:09:08.442Z,8.05
2019-03-05T17:19:08.319Z,7.83
2019-03-05T17:29:08.372Z,7.64
2019-03-05T17:39:08.406Z,7.46
2019-03-05T17:49:08.431Z,7.36
2019-03-05T17:59:08.409Z,7.33
2019-03-05T18:09:08.431Z,7.18
2019-03-05T18:19:08.390Z,7.03
2019-03-05T18:29:08.389Z,6.84
2019-03-05T18:39:08.405Z,6.69
2019-03-05T18:49:08.391Z,6.51
2019-03-05T18:59:08.338Z,6.47
2019-03-05T19:09:09.243Z,6.47
2019-03-05T19:19:08.450Z,6.42
2019-03-05T19:29:08.473Z,6.45
2019-03-05T19:39:08.337Z,6.46
2019-03-05T19:49:08.413Z,6.48
2019-03-05T19:59:09.430Z,6.54
2019-03-05T20:09:08.425Z,6.61
2019-03-05T20:19:08.375Z,6.61
2019-03-05T20:29:09.216Z,6.69
2019-03-05T20:39:08.362Z,6.77
2019-03-05T20:49:08.406Z,6.91
2019-03-05T20:59:08.329Z,7.00
2019-03-05T21:09:08.367Z,7.15
2019-03-05T21:19:08.483Z,7.17
2019-03-05T21:29:08.367Z,7.18
2019-03-05T21:39:08.363Z,7.18
2019-03-05T21:49:08.374Z,7.22
2019-03-05T21:59:08.288Z,7.35
2019-03-05T22:09:08.278Z,7.39
2019-03-05T22:19:08.285Z,7.62
2019-03-05T22:29:08.350Z,7.74
2019-03-05T22:39:08.286Z,7.81
2019-03-05T22:49:08.407Z,7.84
2019-03-05T22:59:08.376Z,7.88
2019-03-05T23:09:13.675Z,7.83
2019-03-05T23:19:08.323Z,7.88
2019-03-05T23:29:08.340Z,8.03
2019-03-05T23:39:08.432Z,8.10
2019-03-05T23:49:08.355Z,8.16
2019-03-05T23:59:08.326Z,8.23
